sensor_id;sensor_type;location;lat;lon;timestamp;P1;durP1;ratioP1;P2;durP2;ratioP2
12312;SDS011;6220;53.580;9.758;2023-04-01T00:01:23;8.50;;;5.23;;
12312;SDS011;6220;53.580;9.758;2023-04-01T00:03:48;8.27;;;4.93;;
12312;SDS011;6220;53.580;9.758;2023-04-01T00:06:15;7.80;;;4.93;;
12312;SDS011;6220;53.580;9.758;2023-04-01T00:08:41;7.23;;;4.80;;
12312;SDS011;6220;53.580;9.758;2023-04-01T00:11:07;9.23;;;5.33;;
12312;SDS011;6220;53.580;9.758;2023-04-01T00:13:33;5.50;;;4.37;;
12312;SDS011;6220;53.580;9.758;2023-04-01T00:15:58;7.43;;;4.30;;
12312;SDS011;6220;53.580;9.758;2023-04-01T00:18:24;9.40;;;4.53;;
12312;SDS011;6220;53.580;9.758;2023-04-01T00:20:50;7.67;;;4.40;;
12312;SDS011;6220;53.580;9.758;2023-04-01T00:23:16;8.20;;;4.53;;
12312;SDS011;6220;53.580;9.758;2023-04-01T00:25:42;8.27;;;4.33;;
12312;SDS011;6220;53.580;9.758;2023-04-01T00:28:08;7.77;;;4.43;;
12312;SDS011;6220;53.580;9.758;2023-04-01T00:30:35;8.63;;;4.77;;
12312;SDS011;6220;53.580;9.758;2023-04-01T00:33:01;7.20;;;4.00;;
12312;SDS011;6220;53.580;9.758;2023-04-01T00:35:27;5.03;;;3.97;;
12312;SDS011;6220;53.580;9.758;2023-04-01T00:37:52;5.30;;;3.80;;
12312;SDS011;6220;53.580;9.758;2023-04-01T00:40:37;7.03;;;4.00;;
12312;SDS011;6220;53.580;9.758;2023-04-01T00:43:11;6.23;;;4.20;;
12312;SDS011;6220;53.580;9.758;2023-04-01T00:45:42;6.63;;;4.17;;
12312;SDS011;6220;53.580;9.758;2023-04-01T00:48:10;6.27;;;3.70;;
12312;SDS011;6220;53.580;9.758;2023-04-01T00:50:38;6.13;;;3.97;;
12312;SDS011;6220;53.580;9.758;2023-04-01T00:53:06;7.57;;;3.30;;
12312;SDS011;6220;53.580;9.758;2023-04-01T00:55:33;6.87;;;3.90;;
12312;SDS011;6220;53.580;9.758;2023-04-01T00:58:02;9.07;;;3.97;;
12312;SDS011;6220;53.580;9.758;2023-04-01T01:00:29;6.03;;;3.70;;
12312;SDS011;6220;53.580;9.758;2023-04-01T01:02:54;5.50;;;3.80;;
12312;SDS011;6220;53.580;9.758;2023-04-01T01:05:21;7.73;;;4.23;;
12312;SDS011;6220;53.580;9.758;2023-04-01T01:07:56;7.50;;;4.20;;
12312;SDS011;6220;53.580;9.758;2023-04-01T01:10:43;6.60;;;4.07;;
12312;SDS011;6220;53.580;9.758;2023-04-01T01:13:17;8.73;;;4.53;;
12312;SDS011;6220;53.580;9.758;2023-04-01T01:15:52;7.17;;;4.40;;
12312;SDS011;6220;53.580;9.758;2023-04-01T01:26:36;6.23;;;4.43;;
12312;SDS011;6220;53.580;9.758;2023-04-01T01:29:26;7.50;;;4.53;;
12312;SDS011;6220;53.580;9.758;2023-04-01T01:34:48;11.67;;;5.07;;
12312;SDS011;6220;53.580;9.758;2023-04-01T01:37:20;7.73;;;4.77;;
12312;SDS011;6220;53.580;9.758;2023-04-01T01:39:49;7.23;;;5.63;;
12312;SDS011;6220;53.580;9.758;2023-04-01T01:42:18;9.83;;;5.17;;
12312;SDS011;6220;53.580;9.758;2023-04-01T01:44:44;7.73;;;4.90;;
12312;SDS011;6220;53.580;9.758;2023-04-01T01:47:11;7.40;;;5.87;;
12312;SDS011;6220;53.580;9.758;2023-04-01T01:49:36;8.77;;;5.20;;
12312;SDS011;6220;53.580;9.758;2023-04-01T01:52:04;9.07;;;6.10;;
12312;SDS011;6220;53.580;9.758;2023-04-01T01:54:29;10.87;;;6.67;;
12312;SDS011;6220;53.580;9.758;2023-04-01T01:56:56;9.40;;;6.57;;
12312;SDS011;6220;53.580;9.758;2023-04-01T01:59:33;9.50;;;7.13;;
12312;SDS011;6220;53.580;9.758;2023-04-01T02:02:00;10.90;;;6.73;;
12312;SDS011;6220;53.580;9.758;2023-04-01T02:04:32;10.67;;;6.70;;
12312;SDS011;6220;53.580;9.758;2023-04-01T02:07:09;9.47;;;6.70;;
12312;SDS011;6220;53.580;9.758;2023-04-01T02:09:38;11.63;;;6.40;;
12312;SDS011;6220;53.580;9.758;2023-04-01T02:12:05;10.90;;;6.47;;
12312;SDS011;6220;53.580;9.758;2023-04-01T02:17:09;10.27;;;6.57;;
12312;SDS011;6220;53.580;9.758;2023-04-01T02:19:53;8.90;;;6.40;;
12312;SDS011;6220;53.580;9.758;2023-04-01T02:22:26;8.37;;;6.30;;
12312;SDS011;6220;53.580;9.758;2023-04-01T02:24:53;10.13;;;6.87;;
12312;SDS011;6220;53.580;9.758;2023-04-01T02:27:20;9.23;;;6.73;;
12312;SDS011;6220;53.580;9.758;2023-04-01T02:29:58;8.80;;;6.73;;
12312;SDS011;6220;53.580;9.758;2023-04-01T02:32:24;8.43;;;6.40;;
12312;SDS011;6220;53.580;9.758;2023-04-01T02:34:50;9.07;;;6.63;;
12312;SDS011;6220;53.580;9.758;2023-04-01T02:37:16;9.53;;;6.20;;
12312;SDS011;6220;53.580;9.758;2023-04-01T02:39:41;7.47;;;6.13;;
12312;SDS011;6220;53.580;9.758;2023-04-01T02:42:07;8.77;;;6.20;;
12312;SDS011;6220;53.580;9.758;2023-04-01T02:44:33;7.60;;;6.40;;
12312;SDS011;6220;53.580;9.758;2023-04-01T02:46:58;9.70;;;6.67;;
12312;SDS011;6220;53.580;9.758;2023-04-01T02:49:25;11.43;;;6.80;;
12312;SDS011;6220;53.580;9.758;2023-04-01T02:51:50;7.60;;;6.07;;
12312;SDS011;6220;53.580;9.758;2023-04-01T02:54:18;11.20;;;6.73;;
12312;SDS011;6220;53.580;9.758;2023-04-01T02:56:44;6.83;;;6.03;;
12312;SDS011;6220;53.580;9.758;2023-04-01T02:59:10;8.17;;;6.50;;
12312;SDS011;6220;53.580;9.758;2023-04-01T03:01:36;11.07;;;6.67;;
12312;SDS011;6220;53.580;9.758;2023-04-01T03:04:01;10.27;;;6.67;;
12312;SDS011;6220;53.580;9.758;2023-04-01T03:06:27;9.07;;;6.70;;
12312;SDS011;6220;53.580;9.758;2023-04-01T03:08:52;9.10;;;6.43;;
12312;SDS011;6220;53.580;9.758;2023-04-01T03:11:17;9.73;;;6.80;;
12312;SDS011;6220;53.580;9.758;2023-04-01T03:13:43;10.07;;;7.63;;
12312;SDS011;6220;53.580;9.758;2023-04-01T03:16:09;8.20;;;6.53;;
12312;SDS011;6220;53.580;9.758;2023-04-01T03:18:35;7.47;;;6.53;;
12312;SDS011;6220;53.580;9.758;2023-04-01T03:21:17;8.87;;;6.40;;
12312;SDS011;6220;53.580;9.758;2023-04-01T03:23:47;8.60;;;6.47;;
12312;SDS011;6220;53.580;9.758;2023-04-01T03:26:13;11.33;;;7.07;;
12312;SDS011;6220;53.580;9.758;2023-04-01T03:28:40;9.33;;;6.57;;
12312;SDS011;6220;53.580;9.758;2023-04-01T03:31:05;8.23;;;7.00;;
12312;SDS011;6220;53.580;9.758;2023-04-01T03:33:31;8.77;;;6.43;;
12312;SDS011;6220;53.580;9.758;2023-04-01T03:35:58;8.00;;;7.03;;
12312;SDS011;6220;53.580;9.758;2023-04-01T03:38:24;10.50;;;6.30;;
12312;SDS011;6220;53.580;9.758;2023-04-01T03:40:49;7.90;;;6.70;;
12312;SDS011;6220;53.580;9.758;2023-04-01T03:43:14;8.13;;;6.43;;
12312;SDS011;6220;53.580;9.758;2023-04-01T03:45:48;8.67;;;6.37;;
12312;SDS011;6220;53.580;9.758;2023-04-01T03:48:14;11.40;;;7.17;;
12312;SDS011;6220;53.580;9.758;2023-04-01T03:50:40;11.10;;;7.53;;
12312;SDS011;6220;53.580;9.758;2023-04-01T03:53:05;8.63;;;7.37;;
12312;SDS011;6220;53.580;9.758;2023-04-01T03:55:31;7.50;;;6.57;;
12312;SDS011;6220;53.580;9.758;2023-04-01T03:57:56;8.80;;;6.37;;
12312;SDS011;6220;53.580;9.758;2023-04-01T04:00:23;8.93;;;7.10;;
12312;SDS011;6220;53.580;9.758;2023-04-01T04:02:48;10.10;;;6.60;;
12312;SDS011;6220;53.580;9.758;2023-04-01T04:05:13;9.90;;;6.87;;
12312;SDS011;6220;53.580;9.758;2023-04-01T04:07:39;8.30;;;6.40;;
12312;SDS011;6220;53.580;9.758;2023-04-01T04:10:05;7.83;;;7.03;;
12312;SDS011;6220;53.580;9.758;2023-04-01T04:12:30;7.30;;;6.60;;
12312;SDS011;6220;53.580;9.758;2023-04-01T04:14:56;8.57;;;7.10;;
12312;SDS011;6220;53.580;9.758;2023-04-01T04:17:21;11.97;;;7.33;;
12312;SDS011;6220;53.580;9.758;2023-04-01T04:19:48;8.70;;;7.60;;
12312;SDS011;6220;53.580;9.758;2023-04-01T04:22:13;8.40;;;6.63;;
12312;SDS011;6220;53.580;9.758;2023-04-01T04:24:39;10.60;;;7.13;;
12312;SDS011;6220;53.580;9.758;2023-04-01T04:27:04;8.77;;;7.17;;
12312;SDS011;6220;53.580;9.758;2023-04-01T04:29:29;8.63;;;7.30;;
12312;SDS011;6220;53.580;9.758;2023-04-01T04:31:55;10.17;;;7.80;;
12312;SDS011;6220;53.580;9.758;2023-04-01T04:34:20;9.17;;;8.10;;
12312;SDS011;6220;53.580;9.758;2023-04-01T04:36:47;10.10;;;8.53;;
12312;SDS011;6220;53.580;9.758;2023-04-01T04:39:13;9.50;;;7.97;;
12312;SDS011;6220;53.580;9.758;2023-04-01T04:41:38;10.90;;;8.80;;
12312;SDS011;6220;53.580;9.758;2023-04-01T04:44:03;12.27;;;8.80;;
12312;SDS011;6220;53.580;9.758;2023-04-01T04:46:29;12.37;;;8.20;;
12312;SDS011;6220;53.580;9.758;2023-04-01T04:48:55;12.03;;;8.77;;
12312;SDS011;6220;53.580;9.758;2023-04-01T04:51:20;11.37;;;8.20;;
12312;SDS011;6220;53.580;9.758;2023-04-01T04:53:46;9.67;;;7.60;;
12312;SDS011;6220;53.580;9.758;2023-04-01T04:56:12;8.87;;;7.57;;
12312;SDS011;6220;53.580;9.758;2023-04-01T04:58:38;9.67;;;8.13;;
12312;SDS011;6220;53.580;9.758;2023-04-01T05:01:09;9.00;;;8.10;;
12312;SDS011;6220;53.580;9.758;2023-04-01T05:03:36;10.10;;;7.57;;
12312;SDS011;6220;53.580;9.758;2023-04-01T05:06:01;10.07;;;7.87;;
12312;SDS011;6220;53.580;9.758;2023-04-01T05:08:27;9.63;;;8.07;;
12312;SDS011;6220;53.580;9.758;2023-04-01T05:10:52;10.57;;;8.80;;
12312;SDS011;6220;53.580;9.758;2023-04-01T05:13:17;12.00;;;8.23;;
12312;SDS011;6220;53.580;9.758;2023-04-01T05:15:43;11.53;;;8.57;;
12312;SDS011;6220;53.580;9.758;2023-04-01T05:18:10;16.57;;;9.20;;
12312;SDS011;6220;53.580;9.758;2023-04-01T05:20:35;9.90;;;8.87;;
12312;SDS011;6220;53.580;9.758;2023-04-01T05:23:00;10.40;;;9.07;;
12312;SDS011;6220;53.580;9.758;2023-04-01T05:25:26;10.93;;;7.43;;
12312;SDS011;6220;53.580;9.758;2023-04-01T05:27:51;5.37;;;4.60;;
12312;SDS011;6220;53.580;9.758;2023-04-01T05:30:17;4.10;;;3.37;;
12312;SDS011;6220;53.580;9.758;2023-04-01T05:32:43;2.17;;;1.97;;
12312;SDS011;6220;53.580;9.758;2023-04-01T05:35:08;2.90;;;1.80;;
12312;SDS011;6220;53.580;9.758;2023-04-01T05:37:35;1.37;;;1.27;;
12312;SDS011;6220;53.580;9.758;2023-04-01T05:40:01;1.20;;;1.10;;
12312;SDS011;6220;53.580;9.758;2023-04-01T05:42:27;1.30;;;1.20;;
12312;SDS011;6220;53.580;9.758;2023-04-01T05:44:53;4.23;;;1.33;;
12312;SDS011;6220;53.580;9.758;2023-04-01T05:47:19;4.73;;;1.20;;
12312;SDS011;6220;53.580;9.758;2023-04-01T05:49:44;2.97;;;1.03;;
12312;SDS011;6220;53.580;9.758;2023-04-01T05:52:09;3.80;;;1.10;;
12312;SDS011;6220;53.580;9.758;2023-04-01T05:54:35;1.83;;;1.00;;
12312;SDS011;6220;53.580;9.758;2023-04-01T05:57:00;0.90;;;0.80;;
12312;SDS011;6220;53.580;9.758;2023-04-01T05:59:26;1.60;;;0.90;;
12312;SDS011;6220;53.580;9.758;2023-04-01T06:01:51;4.40;;;1.00;;
12312;SDS011;6220;53.580;9.758;2023-04-01T06:04:17;3.73;;;1.20;;
12312;SDS011;6220;53.580;9.758;2023-04-01T06:06:43;2.20;;;0.93;;
12312;SDS011;6220;53.580;9.758;2023-04-01T06:09:13;1.10;;;1.00;;
12312;SDS011;6220;53.580;9.758;2023-04-01T06:31:04;1.20;;;1.10;;
12312;SDS011;6220;53.580;9.758;2023-04-01T06:36:23;2.93;;;1.47;;
12312;SDS011;6220;53.580;9.758;2023-04-01T06:45:03;2.60;;;1.30;;
12312;SDS011;6220;53.580;9.758;2023-04-01T06:47:23;4.33;;;1.20;;
12312;SDS011;6220;53.580;9.758;2023-04-01T06:52:36;2.20;;;1.00;;
12312;SDS011;6220;53.580;9.758;2023-04-01T06:55:15;1.53;;;1.00;;
12312;SDS011;6220;53.580;9.758;2023-04-01T06:57:43;1.23;;;1.13;;
12312;SDS011;6220;53.580;9.758;2023-04-01T07:00:15;2.37;;;0.93;;
12312;SDS011;6220;53.580;9.758;2023-04-01T07:02:48;0.90;;;0.90;;
12312;SDS011;6220;53.580;9.758;2023-04-01T07:05:18;1.00;;;0.90;;
12312;SDS011;6220;53.580;9.758;2023-04-01T07:07:48;1.10;;;1.00;;
12312;SDS011;6220;53.580;9.758;2023-04-01T07:10:25;1.20;;;1.10;;
12312;SDS011;6220;53.580;9.758;2023-04-01T07:12:58;1.57;;;0.93;;
12312;SDS011;6220;53.580;9.758;2023-04-01T07:15:30;0.90;;;0.90;;
12312;SDS011;6220;53.580;9.758;2023-04-01T07:18:03;1.47;;;1.00;;
12312;SDS011;6220;53.580;9.758;2023-04-01T07:20:32;1.33;;;1.00;;
12312;SDS011;6220;53.580;9.758;2023-04-01T07:23:44;0.90;;;0.90;;
12312;SDS011;6220;53.580;9.758;2023-04-01T07:26:20;0.83;;;0.83;;
12312;SDS011;6220;53.580;9.758;2023-04-01T07:28:48;0.90;;;0.90;;
12312;SDS011;6220;53.580;9.758;2023-04-01T07:31:22;1.07;;;0.90;;
12312;SDS011;6220;53.580;9.758;2023-04-01T07:36:46;3.43;;;1.33;;
12312;SDS011;6220;53.580;9.758;2023-04-01T07:47:45;3.03;;;1.20;;
12312;SDS011;6220;53.580;9.758;2023-04-01T07:50:26;3.27;;;1.10;;
12312;SDS011;6220;53.580;9.758;2023-04-01T08:01:30;5.80;;;1.60;;
12312;SDS011;6220;53.580;9.758;2023-04-01T08:06:56;6.07;;;1.30;;
12312;SDS011;6220;53.580;9.758;2023-04-01T08:18:38;3.97;;;1.30;;
12312;SDS011;6220;53.580;9.758;2023-04-01T08:21:23;1.30;;;1.20;;
12312;SDS011;6220;53.580;9.758;2023-04-01T08:23:57;2.33;;;1.00;;
12312;SDS011;6220;53.580;9.758;2023-04-01T08:26:39;1.70;;;1.10;;
12312;SDS011;6220;53.580;9.758;2023-04-01T08:29:11;1.00;;;0.90;;
12312;SDS011;6220;53.580;9.758;2023-04-01T08:34:34;2.20;;;1.07;;
12312;SDS011;6220;53.580;9.758;2023-04-01T08:37:04;1.30;;;1.20;;
12312;SDS011;6220;53.580;9.758;2023-04-01T08:39:35;1.70;;;1.10;;
12312;SDS011;6220;53.580;9.758;2023-04-01T08:42:13;1.13;;;1.03;;
12312;SDS011;6220;53.580;9.758;2023-04-01T08:45:03;1.00;;;0.93;;
12312;SDS011;6220;53.580;9.758;2023-04-01T08:50:23;2.27;;;1.07;;
12312;SDS011;6220;53.580;9.758;2023-04-01T09:08:57;1.00;;;0.90;;
12312;SDS011;6220;53.580;9.758;2023-04-01T09:28:28;1.10;;;0.90;;
12312;SDS011;6220;53.580;9.758;2023-04-01T09:41:48;2.03;;;1.07;;
12312;SDS011;6220;53.580;9.758;2023-04-01T09:44:47;1.03;;;1.00;;
12312;SDS011;6220;53.580;9.758;2023-04-01T09:52:38;1.20;;;1.10;;
12312;SDS011;6220;53.580;9.758;2023-04-01T10:00:55;1.23;;;1.00;;
12312;SDS011;6220;53.580;9.758;2023-04-01T10:09:23;1.00;;;1.00;;
12312;SDS011;6220;53.580;9.758;2023-04-01T10:20:12;0.80;;;0.80;;
12312;SDS011;6220;53.580;9.758;2023-04-01T10:28:25;1.40;;;0.97;;
12312;SDS011;6220;53.580;9.758;2023-04-01T10:33:54;0.90;;;0.90;;
12312;SDS011;6220;53.580;9.758;2023-04-01T11:01:34;0.80;;;0.80;;
12312;SDS011;6220;53.580;9.758;2023-04-01T11:12:35;4.23;;;0.83;;
12312;SDS011;6220;53.580;9.758;2023-04-01T11:24:03;3.60;;;1.00;;
12312;SDS011;6220;53.580;9.758;2023-04-01T11:40:59;1.10;;;1.00;;
12312;SDS011;6220;53.580;9.758;2023-04-01T11:52:37;0.93;;;0.93;;
12312;SDS011;6220;53.580;9.758;2023-04-01T11:55:35;1.53;;;1.30;;
12312;SDS011;6220;53.580;9.758;2023-04-01T12:06:21;2.33;;;1.40;;
12312;SDS011;6220;53.580;9.758;2023-04-01T12:09:00;2.70;;;1.50;;
12312;SDS011;6220;53.580;9.758;2023-04-01T12:14:39;3.70;;;1.50;;
12312;SDS011;6220;53.580;9.758;2023-04-01T12:19:51;2.70;;;2.13;;
12312;SDS011;6220;53.580;9.758;2023-04-01T12:22:25;3.47;;;2.13;;
12312;SDS011;6220;53.580;9.758;2023-04-01T12:30:37;5.67;;;2.50;;
12312;SDS011;6220;53.580;9.758;2023-04-01T12:54:49;3.70;;;2.47;;
12312;SDS011;6220;53.580;9.758;2023-04-01T13:00:36;4.30;;;3.20;;
12312;SDS011;6220;53.580;9.758;2023-04-01T13:14:44;3.70;;;3.27;;
12312;SDS011;6220;53.580;9.758;2023-04-01T13:17:14;6.30;;;3.50;;
12312;SDS011;6220;53.580;9.758;2023-04-01T13:31:00;7.07;;;3.57;;
12312;SDS011;6220;53.580;9.758;2023-04-01T13:38:52;5.37;;;3.80;;
12312;SDS011;6220;53.580;9.758;2023-04-01T13:44:14;6.60;;;3.23;;
12312;SDS011;6220;53.580;9.758;2023-04-01T14:20:51;5.37;;;3.57;;
12312;SDS011;6220;53.580;9.758;2023-04-01T14:34:09;3.97;;;3.23;;
12312;SDS011;6220;53.580;9.758;2023-04-01T14:48:15;4.37;;;3.50;;
12312;SDS011;6220;53.580;9.758;2023-04-01T14:50:44;6.00;;;3.73;;
12312;SDS011;6220;53.580;9.758;2023-04-01T14:53:28;5.90;;;3.50;;
12312;SDS011;6220;53.580;9.758;2023-04-01T14:55:58;5.90;;;3.90;;
12312;SDS011;6220;53.580;9.758;2023-04-01T14:58:40;5.00;;;3.63;;
12312;SDS011;6220;53.580;9.758;2023-04-01T15:01:31;6.90;;;4.43;;
12312;SDS011;6220;53.580;9.758;2023-04-01T15:07:03;6.73;;;4.00;;
12312;SDS011;6220;53.580;9.758;2023-04-01T15:12:40;4.87;;;3.83;;
12312;SDS011;6220;53.580;9.758;2023-04-01T15:17:55;6.27;;;3.80;;
12312;SDS011;6220;53.580;9.758;2023-04-01T15:23:23;7.53;;;3.90;;
12312;SDS011;6220;53.580;9.758;2023-04-01T15:31:48;5.13;;;3.80;;
12312;SDS011;6220;53.580;9.758;2023-04-01T15:45:29;6.60;;;3.83;;
12312;SDS011;6220;53.580;9.758;2023-04-01T15:48:19;10.13;;;4.03;;
12312;SDS011;6220;53.580;9.758;2023-04-01T15:51:38;6.10;;;3.77;;
12312;SDS011;6220;53.580;9.758;2023-04-01T15:59:27;7.03;;;4.20;;
12312;SDS011;6220;53.580;9.758;2023-04-01T16:23:49;8.23;;;4.60;;
12312;SDS011;6220;53.580;9.758;2023-04-01T16:29:12;5.47;;;4.07;;
12312;SDS011;6220;53.580;9.758;2023-04-01T16:37:10;6.50;;;3.93;;
12312;SDS011;6220;53.580;9.758;2023-04-01T16:39:54;9.27;;;4.03;;
12312;SDS011;6220;53.580;9.758;2023-04-01T16:42:52;6.60;;;3.90;;
12312;SDS011;6220;53.580;9.758;2023-04-01T16:45:26;5.93;;;3.93;;
12312;SDS011;6220;53.580;9.758;2023-04-01T16:48:12;6.53;;;4.03;;
12312;SDS011;6220;53.580;9.758;2023-04-01T16:53:34;6.57;;;3.80;;
12312;SDS011;6220;53.580;9.758;2023-04-01T16:56:10;8.77;;;3.87;;
12312;SDS011;6220;53.580;9.758;2023-04-01T16:58:41;6.60;;;3.93;;
12312;SDS011;6220;53.580;9.758;2023-04-01T17:01:27;7.13;;;4.20;;
12312;SDS011;6220;53.580;9.758;2023-04-01T17:06:53;7.07;;;4.30;;
12312;SDS011;6220;53.580;9.758;2023-04-01T17:12:23;7.57;;;4.30;;
12312;SDS011;6220;53.580;9.758;2023-04-01T17:17:51;5.23;;;4.17;;
12312;SDS011;6220;53.580;9.758;2023-04-01T17:53:12;6.27;;;3.20;;
12312;SDS011;6220;53.580;9.758;2023-04-01T17:58:59;4.90;;;3.50;;
12312;SDS011;6220;53.580;9.758;2023-04-01T18:01:35;6.10;;;3.07;;
12312;SDS011;6220;53.580;9.758;2023-04-01T18:10:56;6.50;;;3.50;;
12312;SDS011;6220;53.580;9.758;2023-04-01T18:18:56;7.33;;;3.97;;
12312;SDS011;6220;53.580;9.758;2023-04-01T18:23:58;5.27;;;3.30;;
12312;SDS011;6220;53.580;9.758;2023-04-01T18:26:36;6.87;;;3.80;;
12312;SDS011;6220;53.580;9.758;2023-04-01T18:29:08;8.17;;;3.67;;
12312;SDS011;6220;53.580;9.758;2023-04-01T18:31:43;5.07;;;3.20;;
12312;SDS011;6220;53.580;9.758;2023-04-01T18:34:13;8.10;;;3.40;;
12312;SDS011;6220;53.580;9.758;2023-04-01T18:36:51;5.07;;;3.07;;
12312;SDS011;6220;53.580;9.758;2023-04-01T18:39:21;9.53;;;3.67;;
12312;SDS011;6220;53.580;9.758;2023-04-01T18:42:03;4.10;;;3.10;;
12312;SDS011;6220;53.580;9.758;2023-04-01T18:45:01;5.17;;;3.40;;
12312;SDS011;6220;53.580;9.758;2023-04-01T18:47:43;5.73;;;3.27;;
12312;SDS011;6220;53.580;9.758;2023-04-01T18:52:46;6.27;;;3.40;;
12312;SDS011;6220;53.580;9.758;2023-04-01T18:58:06;5.80;;;3.20;;
12312;SDS011;6220;53.580;9.758;2023-04-01T19:00:45;3.23;;;2.73;;
12312;SDS011;6220;53.580;9.758;2023-04-01T19:06:41;8.57;;;3.50;;
12312;SDS011;6220;53.580;9.758;2023-04-01T19:09:17;4.33;;;3.43;;
12312;SDS011;6220;53.580;9.758;2023-04-01T19:19:56;6.00;;;3.47;;
12312;SDS011;6220;53.580;9.758;2023-04-01T19:27:52;6.03;;;4.20;;
12312;SDS011;6220;53.580;9.758;2023-04-01T19:33:51;5.03;;;3.57;;
12312;SDS011;6220;53.580;9.758;2023-04-01T19:44:38;7.37;;;4.07;;
12312;SDS011;6220;53.580;9.758;2023-04-01T19:47:57;6.87;;;3.57;;
12312;SDS011;6220;53.580;9.758;2023-04-01T19:53:01;4.87;;;3.00;;
12312;SDS011;6220;53.580;9.758;2023-04-01T19:58:26;4.93;;;2.80;;
12312;SDS011;6220;53.580;9.758;2023-04-01T20:01:00;5.10;;;3.10;;
12312;SDS011;6220;53.580;9.758;2023-04-01T20:09:03;6.97;;;3.23;;
12312;SDS011;6220;53.580;9.758;2023-04-01T20:14:44;7.67;;;3.53;;
12312;SDS011;6220;53.580;9.758;2023-04-01T20:17:16;5.30;;;3.17;;
12312;SDS011;6220;53.580;9.758;2023-04-01T20:27:50;5.67;;;3.27;;
12312;SDS011;6220;53.580;9.758;2023-04-01T20:31:01;6.83;;;3.40;;
12312;SDS011;6220;53.580;9.758;2023-04-01T20:46:37;7.80;;;2.97;;
12312;SDS011;6220;53.580;9.758;2023-04-01T20:51:39;7.70;;;3.50;;
12312;SDS011;6220;53.580;9.758;2023-04-01T20:54:30;5.00;;;2.87;;
12312;SDS011;6220;53.580;9.758;2023-04-01T21:07:28;4.13;;;2.77;;
12312;SDS011;6220;53.580;9.758;2023-04-01T21:10:34;6.27;;;2.80;;
12312;SDS011;6220;53.580;9.758;2023-04-01T21:18:33;4.90;;;2.83;;
12312;SDS011;6220;53.580;9.758;2023-04-01T21:24:28;7.40;;;3.27;;
12312;SDS011;6220;53.580;9.758;2023-04-01T21:38:23;5.33;;;2.77;;
12312;SDS011;6220;53.580;9.758;2023-04-01T21:57:08;7.60;;;3.20;;
12312;SDS011;6220;53.580;9.758;2023-04-01T22:02:45;4.67;;;2.87;;
12312;SDS011;6220;53.580;9.758;2023-04-01T22:05:34;7.77;;;2.70;;
12312;SDS011;6220;53.580;9.758;2023-04-01T22:11:06;5.17;;;2.97;;
12312;SDS011;6220;53.580;9.758;2023-04-01T22:13:50;4.00;;;2.23;;
12312;SDS011;6220;53.580;9.758;2023-04-01T22:22:18;4.33;;;2.60;;
12312;SDS011;6220;53.580;9.758;2023-04-01T22:25:07;5.70;;;2.50;;
12312;SDS011;6220;53.580;9.758;2023-04-01T22:30:22;5.40;;;2.23;;
12312;SDS011;6220;53.580;9.758;2023-04-01T22:32:50;6.07;;;2.37;;
12312;SDS011;6220;53.580;9.758;2023-04-01T22:43:03;3.63;;;2.10;;
12312;SDS011;6220;53.580;9.758;2023-04-01T22:45:41;6.03;;;2.20;;
12312;SDS011;6220;53.580;9.758;2023-04-01T22:48:33;5.60;;;2.10;;
12312;SDS011;6220;53.580;9.758;2023-04-01T22:51:13;8.67;;;2.73;;
12312;SDS011;6220;53.580;9.758;2023-04-01T22:56:33;4.00;;;2.00;;
12312;SDS011;6220;53.580;9.758;2023-04-01T23:02:18;4.67;;;2.20;;
12312;SDS011;6220;53.580;9.758;2023-04-01T23:04:48;5.53;;;2.07;;
12312;SDS011;6220;53.580;9.758;2023-04-01T23:07:38;4.77;;;2.27;;
12312;SDS011;6220;53.580;9.758;2023-04-01T23:10:28;4.23;;;2.10;;
12312;SDS011;6220;53.580;9.758;2023-04-01T23:12:59;8.60;;;2.30;;
12312;SDS011;6220;53.580;9.758;2023-04-01T23:15:26;5.17;;;2.37;;
12312;SDS011;6220;53.580;9.758;2023-04-01T23:21:13;7.33;;;2.23;;
12312;SDS011;6220;53.580;9.758;2023-04-01T23:29:34;5.23;;;1.90;;
12312;SDS011;6220;53.580;9.758;2023-04-01T23:32:01;6.77;;;2.00;;
12312;SDS011;6220;53.580;9.758;2023-04-01T23:34:34;4.40;;;2.20;;
12312;SDS011;6220;53.580;9.758;2023-04-01T23:37:02;6.53;;;2.10;;
12312;SDS011;6220;53.580;9.758;2023-04-01T23:39:34;6.73;;;1.87;;
12312;SDS011;6220;53.580;9.758;2023-04-01T23:42:03;3.73;;;1.80;;
12312;SDS011;6220;53.580;9.758;2023-04-01T23:44:30;4.63;;;1.80;;
12312;SDS011;6220;53.580;9.758;2023-04-01T23:46:58;7.03;;;1.80;;
12312;SDS011;6220;53.580;9.758;2023-04-01T23:49:25;5.47;;;1.70;;
12312;SDS011;6220;53.580;9.758;2023-04-01T23:52:02;6.40;;;1.80;;
12312;SDS011;6220;53.580;9.758;2023-04-01T23:54:51;5.53;;;1.80;;
12312;SDS011;6220;53.580;9.758;2023-04-01T23:57:19;2.87;;;1.77;;
